createdAt,value
2018-05-19T00:00:33.750Z,0.00
2018-05-19T00:01:33.785Z,0.00
2018-05-19T00:02:34.052Z,0.00
2018-05-19T00:03:33.826Z,0.00
2018-05-19T00:04:33.862Z,0.00
2018-05-19T00:05:33.892Z,0.00
2018-05-19T00:06:33.924Z,0.00
2018-05-19T00:07:33.953Z,0.00
2018-05-19T00:08:33.994Z,0.00
2018-05-19T00:09:34.014Z,0.00
2018-05-19T00:10:34.050Z,0.00
2018-05-19T00:11:34.076Z,0.00
2018-05-19T00:12:34.110Z,0.00
2018-05-19T00:13:34.148Z,0.00
2018-05-19T00:14:34.478Z,0.00
2018-05-19T00:15:34.285Z,0.00
2018-05-19T00:16:34.250Z,0.00
2018-05-19T00:17:34.273Z,0.00
2018-05-19T00:18:34.296Z,0.00
2018-05-19T00:19:34.344Z,0.00
2018-05-19T00:20:34.609Z,0.00
2018-05-19T00:21:34.390Z,0.00
2018-05-19T00:22:34.420Z,0.00
2018-05-19T00:23:34.465Z,0.00
2018-05-19T00:24:34.547Z,0.00
2018-05-19T00:25:34.553Z,0.00
2018-05-19T00:26:34.862Z,0.00
2018-05-19T00:27:34.620Z,0.00
2018-05-19T00:28:34.605Z,0.00
2018-05-19T00:29:34.653Z,0.00
2018-05-19T00:30:34.781Z,0.00
2018-05-19T00:31:34.703Z,0.00
2018-05-19T00:32:34.992Z,0.00
2018-05-19T00:33:34.773Z,0.00
2018-05-19T00:34:34.791Z,0.00
2018-05-19T00:35:34.889Z,0.00
2018-05-19T00:36:34.853Z,0.00
2018-05-19T00:37:34.903Z,0.00
2018-05-19T00:38:34.920Z,0.00
2018-05-19T00:39:35.229Z,0.00
2018-05-19T00:40:34.976Z,0.00
2018-05-19T00:41:35.045Z,0.00
2018-05-19T00:42:35.041Z,0.00
2018-05-19T00:43:35.069Z,0.00
2018-05-19T00:44:35.105Z,0.00
2018-05-19T00:45:35.135Z,0.00
2018-05-19T00:46:35.412Z,0.00
2018-05-19T00:47:35.193Z,0.00
2018-05-19T00:48:35.225Z,0.00
2018-05-19T00:49:35.263Z,0.00
2018-05-19T00:50:35.417Z,0.00
2018-05-19T00:51:35.424Z,0.00
2018-05-19T00:52:35.358Z,0.00
2018-05-19T00:53:35.691Z,0.00
2018-05-19T00:54:35.428Z,0.00
2018-05-19T00:55:35.496Z,0.00
2018-05-19T00:56:35.470Z,0.00
2018-05-19T00:57:35.501Z,0.00
2018-05-19T00:58:35.532Z,0.00
2018-05-19T00:59:35.586Z,0.00
2018-05-19T01:00:35.893Z,0.00
2018-05-19T01:01:35.628Z,0.00
2018-05-19T01:02:35.659Z,0.00
2018-05-19T01:03:35.689Z,0.00
2018-05-19T01:04:35.715Z,0.00
2018-05-19T01:05:35.803Z,0.00
2018-05-19T01:06:35.777Z,0.00
2018-05-19T01:07:36.109Z,0.00
2018-05-19T01:08:35.865Z,0.00
2018-05-19T01:09:35.885Z,0.00
2018-05-19T01:10:35.906Z,0.00
2018-05-19T01:11:35.954Z,0.00
2018-05-19T01:12:36.121Z,0.00
2018-05-19T01:13:36.109Z,0.00
2018-05-19T01:14:36.392Z,0.00
2018-05-19T01:15:36.134Z,0.00
2018-05-19T01:16:36.149Z,0.00
2018-05-19T01:17:36.115Z,0.00
2018-05-19T01:18:36.167Z,0.00
2018-05-19T01:19:36.183Z,0.00
2018-05-19T01:20:36.212Z,0.00
2018-05-19T01:21:36.540Z,0.00
2018-05-19T01:22:36.287Z,0.00
2018-05-19T01:23:36.310Z,0.00
2018-05-19T01:24:36.390Z,0.00
2018-05-19T01:25:36.368Z,0.00
2018-05-19T01:26:36.394Z,0.00
2018-05-19T01:27:36.455Z,0.00
2018-05-19T01:28:36.757Z,0.00
2018-05-19T01:29:36.540Z,0.00
2018-05-19T01:30:36.520Z,0.00
2018-05-19T01:31:36.568Z,0.00
2018-05-19T01:32:36.625Z,0.00
2018-05-19T01:33:36.610Z,0.00
2018-05-19T01:34:36.645Z,0.00
2018-05-19T01:35:37.007Z,0.00
2018-05-19T01:36:36.701Z,0.00
2018-05-19T01:37:36.740Z,0.00
2018-05-19T01:38:36.757Z,0.00
2018-05-19T01:39:36.786Z,0.00
2018-05-19T01:40:36.817Z,0.00
2018-05-19T01:41:36.850Z,0.00
2018-05-19T01:42:37.129Z,0.00
2018-05-19T01:43:36.912Z,0.00
2018-05-19T01:44:36.967Z,0.00
2018-05-19T01:45:36.974Z,0.00
2018-05-19T01:46:37.014Z,0.00
2018-05-19T01:47:37.039Z,0.00
2018-05-19T01:48:37.061Z,0.00
2018-05-19T01:49:37.405Z,0.00
2018-05-19T01:50:37.136Z,0.00
2018-05-19T01:51:37.211Z,0.00
2018-05-19T01:52:37.186Z,0.00
2018-05-19T01:53:37.240Z,0.00
2018-05-19T01:54:37.245Z,0.00
2018-05-19T01:55:37.586Z,0.00
2018-05-19T01:56:37.304Z,0.00
2018-05-19T01:57:37.340Z,0.00
2018-05-19T01:58:37.373Z,0.00
2018-05-19T01:59:37.403Z,0.00
2018-05-19T02:00:37.505Z,0.00
2018-05-19T02:01:37.758Z,0.00
2018-05-19T02:02:37.489Z,0.00
2018-05-19T02:03:37.527Z,0.00
2018-05-19T02:04:37.553Z,0.00
2018-05-19T02:05:37.594Z,0.00
2018-05-19T02:06:37.614Z,0.00
2018-05-19T02:07:37.941Z,0.00
2018-05-19T02:08:37.685Z,0.00
2018-05-19T02:09:37.701Z,0.00
2018-05-19T02:10:37.861Z,0.00
2018-05-19T02:11:37.768Z,0.00
2018-05-19T02:12:37.795Z,0.00
2018-05-19T02:13:38.076Z,0.00
2018-05-19T02:14:37.858Z,0.00
2018-05-19T02:15:37.891Z,0.00
2018-05-19T02:16:37.921Z,0.00
2018-05-19T02:17:37.960Z,0.00
2018-05-19T02:18:38.004Z,0.00
2018-05-19T02:19:38.335Z,0.00
2018-05-19T02:20:38.096Z,0.00
2018-05-19T02:21:38.091Z,0.00
2018-05-19T02:22:38.106Z,0.00
2018-05-19T02:23:38.131Z,0.00
2018-05-19T02:24:38.160Z,0.00
2018-05-19T02:25:38.498Z,0.00
2018-05-19T02:26:38.222Z,0.00
2018-05-19T02:27:38.285Z,0.00
2018-05-19T02:28:38.286Z,0.00
2018-05-19T02:29:38.323Z,0.00
2018-05-19T02:30:38.355Z,0.00
2018-05-19T02:31:38.677Z,0.00
2018-05-19T02:32:38.468Z,0.00
2018-05-19T02:33:38.439Z,0.00
2018-05-19T02:34:38.468Z,0.00
2018-05-19T02:35:38.501Z,0.00
2018-05-19T02:36:38.543Z,0.00
2018-05-19T02:37:39.164Z,0.00
2018-05-19T02:38:38.593Z,0.00
2018-05-19T02:39:38.628Z,0.00
2018-05-19T02:40:38.660Z,0.00
2018-05-19T02:41:38.783Z,0.00
2018-05-19T02:42:38.713Z,0.00
2018-05-19T02:43:39.010Z,0.00
2018-05-19T02:44:38.823Z,0.00
2018-05-19T02:45:38.808Z,0.00
2018-05-19T02:46:38.842Z,0.00
2018-05-19T02:47:38.917Z,0.00
2018-05-19T02:48:38.900Z,0.00
2018-05-19T02:49:39.188Z,0.00
2018-05-19T02:50:38.978Z,0.00
2018-05-19T02:51:38.993Z,0.00
2018-05-19T02:52:39.021Z,0.00
2018-05-19T02:53:39.225Z,0.00
2018-05-19T02:54:39.082Z,0.00
2018-05-19T02:55:39.439Z,0.00
2018-05-19T02:56:39.143Z,0.00
2018-05-19T02:57:39.179Z,0.00
2018-05-19T02:58:39.205Z,0.00
2018-05-19T02:59:39.237Z,0.00
2018-05-19T03:00:39.314Z,0.00
2018-05-19T03:01:39.547Z,0.00
2018-05-19T03:02:39.325Z,0.00
2018-05-19T03:03:39.359Z,0.00
2018-05-19T03:04:39.391Z,0.00
2018-05-19T03:05:39.452Z,0.00
2018-05-19T03:06:39.453Z,0.00
2018-05-19T03:07:39.730Z,0.00
2018-05-19T03:08:39.511Z,0.00
2018-05-19T03:09:39.540Z,0.00
2018-05-19T03:10:39.581Z,0.00
2018-05-19T03:11:39.604Z,0.00
2018-05-19T03:12:39.636Z,0.00
2018-05-19T03:13:39.671Z,0.00
2018-05-19T03:14:39.947Z,0.00
2018-05-19T03:15:39.723Z,0.00
2018-05-19T03:16:39.768Z,0.00
2018-05-19T03:17:39.785Z,0.00
2018-05-19T03:18:39.822Z,0.00
2018-05-19T03:19:39.847Z,0.00
2018-05-19T03:20:39.928Z,0.00
2018-05-19T03:21:40.158Z,0.00
2018-05-19T03:22:39.937Z,0.00
2018-05-19T03:23:39.972Z,0.00
2018-05-19T03:24:39.998Z,0.00
2018-05-19T03:25:40.065Z,0.00
2018-05-19T03:26:40.063Z,0.00
2018-05-19T03:27:40.094Z,0.00
2018-05-19T03:28:40.423Z,0.00
2018-05-19T03:29:40.157Z,0.00
2018-05-19T03:30:40.189Z,0.00
2018-05-19T03:31:40.222Z,0.00
2018-05-19T03:32:40.248Z,0.00
2018-05-19T03:33:40.277Z,0.00
2018-05-19T03:34:40.308Z,0.00
2018-05-19T03:35:40.637Z,0.00
2018-05-19T03:36:40.385Z,0.00
2018-05-19T03:37:40.450Z,0.00
2018-05-19T03:38:40.430Z,0.00
2018-05-19T03:39:40.471Z,0.00
2018-05-19T03:40:40.506Z,0.00
2018-05-19T03:41:40.521Z,0.00
2018-05-19T03:42:40.838Z,0.00
2018-05-19T03:43:40.579Z,0.00
2018-05-19T03:44:40.609Z,0.00
2018-05-19T03:45:40.646Z,0.00
2018-05-19T03:46:40.684Z,0.00
2018-05-19T03:47:40.741Z,0.00
2018-05-19T03:48:40.744Z,0.00
2018-05-19T03:49:41.011Z,0.00
2018-05-19T03:50:40.803Z,0.00
2018-05-19T03:51:40.830Z,5.63
2018-05-19T03:52:40.859Z,5.63
2018-05-19T03:53:40.902Z,5.63
2018-05-19T03:54:40.917Z,5.63
2018-05-19T03:55:40.947Z,5.63
2018-05-19T03:56:41.226Z,5.63
2018-05-19T03:57:41.016Z,5.63
2018-05-19T03:58:41.048Z,5.63
2018-05-19T03:59:41.068Z,5.63
2018-05-19T04:00:41.097Z,5.63
2018-05-19T04:01:41.128Z,5.63
2018-05-19T04:02:41.163Z,5.63
2018-05-19T04:03:41.440Z,5.63
2018-05-19T04:04:41.224Z,5.63
2018-05-19T04:05:41.252Z,5.63
2018-05-19T04:06:41.292Z,5.63
2018-05-19T04:07:41.310Z,5.63
2018-05-19T04:08:41.348Z,5.63
2018-05-19T04:09:41.377Z,5.63
2018-05-19T04:10:41.651Z,5.63
2018-05-19T04:11:41.430Z,5.63
2018-05-19T04:12:41.471Z,5.63
2018-05-19T04:13:41.492Z,5.63
2018-05-19T04:14:41.540Z,11.25
2018-05-19T04:15:41.551Z,11.25
2018-05-19T04:16:41.619Z,11.25
2018-05-19T04:17:41.915Z,11.25
2018-05-19T04:18:41.660Z,11.25
2018-05-19T04:19:41.679Z,11.25
2018-05-19T04:20:41.704Z,11.25
2018-05-19T04:21:41.735Z,11.25
2018-05-19T04:22:41.773Z,11.25
2018-05-19T04:23:42.016Z,11.25
2018-05-19T04:24:42.103Z,11.25
2018-05-19T04:25:41.860Z,11.25
2018-05-19T04:26:41.889Z,11.25
2018-05-19T04:27:41.950Z,11.25
2018-05-19T04:28:41.965Z,11.25
2018-05-19T04:29:41.997Z,11.25
2018-05-19T04:30:42.326Z,11.25
2018-05-19T04:31:42.036Z,16.88
2018-05-19T04:32:42.067Z,16.88
2018-05-19T04:33:42.107Z,16.88
2018-05-19T04:34:42.153Z,16.88
2018-05-19T04:35:42.159Z,16.88
2018-05-19T04:36:42.494Z,16.88
2018-05-19T04:37:42.218Z,16.88
2018-05-19T04:38:42.259Z,16.88
2018-05-19T04:39:42.280Z,16.88
2018-05-19T04:40:42.320Z,22.50
2018-05-19T04:41:42.347Z,22.50
2018-05-19T04:42:42.621Z,22.50
2018-05-19T04:43:42.418Z,22.50
2018-05-19T04:44:42.449Z,22.50
2018-05-19T04:45:42.473Z,22.50
2018-05-19T04:46:42.497Z,22.50
2018-05-19T04:47:42.575Z,22.50
2018-05-19T04:48:42.857Z,22.50
2018-05-19T04:49:42.597Z,22.50
2018-05-19T04:50:42.617Z,22.50
2018-05-19T04:51:42.673Z,22.50
2018-05-19T04:52:42.673Z,22.50
2018-05-19T04:53:42.713Z,22.50
2018-05-19T04:54:43.003Z,22.50
2018-05-19T04:55:42.764Z,28.13
2018-05-19T04:56:42.803Z,28.13
2018-05-19T04:57:42.862Z,28.13
2018-05-19T04:58:42.864Z,28.13
2018-05-19T04:59:42.906Z,28.13
2018-05-19T05:00:43.173Z,28.13
2018-05-19T05:01:42.975Z,28.13
2018-05-19T05:02:43.004Z,28.13
2018-05-19T05:03:43.026Z,28.13
2018-05-19T05:04:43.049Z,28.13
2018-05-19T05:05:43.069Z,28.13
2018-05-19T05:06:43.409Z,33.75
2018-05-19T05:07:43.245Z,33.75
2018-05-19T05:08:43.189Z,33.75
2018-05-19T05:09:43.249Z,33.75
2018-05-19T05:10:43.231Z,33.75
2018-05-19T05:11:43.266Z,33.75
2018-05-19T05:12:43.562Z,33.75
2018-05-19T05:13:43.329Z,33.75
2018-05-19T05:14:43.362Z,33.75
2018-05-19T05:15:43.394Z,33.75
2018-05-19T05:16:43.409Z,33.75
2018-05-19T05:17:43.444Z,33.75
2018-05-19T05:18:43.718Z,33.75
2018-05-19T05:19:43.623Z,39.38
2018-05-19T05:20:43.530Z,39.38
2018-05-19T05:21:43.571Z,39.38
2018-05-19T05:22:43.590Z,39.38
2018-05-19T05:23:43.628Z,39.38
2018-05-19T05:24:43.980Z,39.38
2018-05-19T05:25:43.692Z,39.38
2018-05-19T05:26:43.714Z,45.00
2018-05-19T05:27:43.748Z,45.00
2018-05-19T05:28:43.809Z,45.00
2018-05-19T05:29:43.835Z,45.00
2018-05-19T05:30:44.092Z,45.00
2018-05-19T05:31:43.870Z,45.00
2018-05-19T05:32:43.898Z,45.00
2018-05-19T05:33:44.022Z,45.00
2018-05-19T05:34:44.001Z,45.00
2018-05-19T05:35:43.985Z,50.63
2018-05-19T05:36:44.323Z,50.63
2018-05-19T05:37:44.133Z,50.63
2018-05-19T05:38:44.088Z,50.63
2018-05-19T05:39:44.108Z,50.63
2018-05-19T05:40:44.146Z,50.63
2018-05-19T05:41:44.168Z,50.63
2018-05-19T05:42:44.244Z,50.63
2018-05-19T05:43:44.534Z,50.63
2018-05-19T05:44:44.266Z,50.63
2018-05-19T05:45:44.301Z,50.63
2018-05-19T05:46:44.345Z,50.63
2018-05-19T05:47:44.352Z,56.25
2018-05-19T05:48:44.386Z,56.25
2018-05-19T05:49:44.421Z,56.25
2018-05-19T05:50:44.704Z,56.25
2018-05-19T05:51:44.478Z,61.88
2018-05-19T05:52:44.575Z,61.88
2018-05-19T05:53:44.555Z,61.88
2018-05-19T05:54:44.597Z,61.88
2018-05-19T05:55:44.608Z,61.88
2018-05-19T05:56:44.654Z,61.88
2018-05-19T05:57:44.909Z,61.88
2018-05-19T05:58:44.694Z,67.50
2018-05-19T05:59:44.867Z,67.50
2018-05-19T06:00:44.751Z,67.50
2018-05-19T06:01:44.787Z,67.50
2018-05-19T06:02:44.814Z,67.50
2018-05-19T06:03:44.847Z,67.50
2018-05-19T06:04:45.184Z,67.50
2018-05-19T06:05:44.928Z,67.50
2018-05-19T06:06:44.969Z,67.50
2018-05-19T06:07:44.978Z,73.13
2018-05-19T06:08:45.021Z,73.13
2018-05-19T06:09:45.037Z,73.13
2018-05-19T06:10:45.061Z,67.50
2018-05-19T06:11:45.350Z,67.50
2018-05-19T06:12:45.122Z,67.50
2018-05-19T06:13:45.180Z,73.13
2018-05-19T06:14:45.192Z,73.13
2018-05-19T06:15:45.217Z,73.13
2018-05-19T06:16:45.251Z,73.13
2018-05-19T06:17:45.279Z,73.13
2018-05-19T06:18:45.686Z,73.13
2018-05-19T06:19:45.389Z,73.13
2018-05-19T06:20:45.367Z,73.13
2018-05-19T06:21:45.407Z,73.13
2018-05-19T06:22:45.440Z,73.13
2018-05-19T06:23:45.464Z,73.13
2018-05-19T06:24:45.497Z,78.75
2018-05-19T06:25:45.830Z,78.75
2018-05-19T06:26:45.558Z,78.75
2018-05-19T06:27:45.585Z,78.75
2018-05-19T06:28:45.616Z,78.75
2018-05-19T06:29:45.684Z,78.75
2018-05-19T06:30:45.679Z,78.75
2018-05-19T06:31:45.709Z,78.75
2018-05-19T06:32:46.040Z,78.75
2018-05-19T06:33:45.783Z,78.75
2018-05-19T06:34:45.970Z,78.75
2018-05-19T06:35:45.833Z,78.75
2018-05-19T06:36:45.867Z,78.75
2018-05-19T06:37:45.905Z,78.75
2018-05-19T06:38:45.929Z,78.75
2018-05-19T06:39:46.207Z,78.75
2018-05-19T06:40:46.022Z,78.75
2018-05-19T06:41:46.020Z,78.75
2018-05-19T06:42:46.050Z,78.75
2018-05-19T06:43:46.098Z,78.75
2018-05-19T06:44:46.119Z,78.75
2018-05-19T06:45:46.150Z,78.75
2018-05-19T06:46:46.429Z,84.38
2018-05-19T06:47:46.235Z,84.38
2018-05-19T06:48:46.537Z,84.38
2018-05-19T06:49:46.268Z,84.38
2018-05-19T06:50:46.302Z,84.38
2018-05-19T06:51:46.331Z,90.00
2018-05-19T06:52:46.368Z,90.00
2018-05-19T06:53:46.694Z,90.00
2018-05-19T06:54:46.424Z,90.00
2018-05-19T06:55:46.465Z,90.00
2018-05-19T06:56:46.485Z,90.00
2018-05-19T06:57:46.535Z,90.00
2018-05-19T06:58:46.553Z,90.00
2018-05-19T06:59:46.842Z,90.00
2018-05-19T07:00:46.621Z,90.00
2018-05-19T07:01:46.654Z,90.00
2018-05-19T07:02:46.700Z,90.00
2018-05-19T07:03:46.741Z,90.00
2018-05-19T07:04:46.812Z,90.00
2018-05-19T07:05:47.035Z,90.00
2018-05-19T07:06:46.801Z,90.00
2018-05-19T07:07:46.840Z,90.00
2018-05-19T07:08:46.866Z,90.00
2018-05-19T07:09:46.898Z,90.00
2018-05-19T07:10:46.923Z,90.00
2018-05-19T07:11:47.260Z,90.00
2018-05-19T07:12:46.995Z,95.63
2018-05-19T07:13:47.025Z,95.63
2018-05-19T07:14:47.048Z,95.63
2018-05-19T07:15:47.078Z,95.63
2018-05-19T07:16:47.112Z,95.63
2018-05-19T07:17:47.393Z,101.25
2018-05-19T07:18:47.174Z,101.25
2018-05-19T07:19:47.210Z,106.88
2018-05-19T07:20:47.238Z,106.88
2018-05-19T07:21:47.270Z,106.88
2018-05-19T07:22:47.350Z,106.88
2018-05-19T07:23:47.590Z,106.88
2018-05-19T07:24:47.369Z,106.88
2018-05-19T07:25:47.412Z,106.88
2018-05-19T07:26:47.440Z,106.88
2018-05-19T07:27:47.457Z,106.88
2018-05-19T07:28:47.491Z,106.88
2018-05-19T07:29:47.525Z,106.88
2018-05-19T07:30:47.561Z,106.88
2018-05-19T07:31:47.583Z,112.50
2018-05-19T07:32:47.622Z,112.50
2018-05-19T07:33:47.653Z,112.50
2018-05-19T07:34:47.677Z,112.50
2018-05-19T07:35:47.972Z,106.88
2018-05-19T07:36:47.747Z,106.88
2018-05-19T07:37:47.778Z,106.88
2018-05-19T07:38:47.813Z,106.88
2018-05-19T07:39:47.836Z,106.88
2018-05-19T07:40:47.880Z,106.88
2018-05-19T07:41:48.147Z,106.88
2018-05-19T07:42:47.936Z,106.88
2018-05-19T07:43:47.968Z,106.88
2018-05-19T07:44:48.076Z,112.50
2018-05-19T07:45:48.123Z,106.88
2018-05-19T07:46:48.060Z,112.50
2018-05-19T07:47:48.336Z,112.50
2018-05-19T07:48:48.121Z,112.50
2018-05-19T07:49:48.150Z,106.88
2018-05-19T07:50:48.235Z,106.88
2018-05-19T07:51:48.235Z,101.25
2018-05-19T07:52:48.252Z,101.25
2018-05-19T07:53:48.636Z,101.25
2018-05-19T07:54:48.316Z,101.25
2018-05-19T07:55:48.340Z,101.25
2018-05-19T07:56:48.370Z,101.25
2018-05-19T07:57:48.410Z,101.25
2018-05-19T07:58:48.436Z,101.25
2018-05-19T07:59:48.718Z,95.63
2018-05-19T08:00:48.497Z,90.00
2018-05-19T08:01:48.531Z,90.00
2018-05-19T08:02:48.566Z,90.00
2018-05-19T08:03:48.594Z,90.00
2018-05-19T08:04:48.634Z,90.00
2018-05-19T08:05:48.908Z,90.00
2018-05-19T08:06:48.700Z,90.00
2018-05-19T08:07:48.718Z,90.00
2018-05-19T08:08:48.753Z,90.00
2018-05-19T08:09:48.846Z,90.00
2018-05-19T08:10:48.814Z,90.00
2018-05-19T08:11:49.098Z,90.00
2018-05-19T08:12:48.896Z,90.00
2018-05-19T08:13:48.957Z,90.00
2018-05-19T08:14:48.965Z,90.00
2018-05-19T08:15:49.009Z,90.00
2018-05-19T08:16:49.017Z,90.00
2018-05-19T08:17:49.050Z,90.00
2018-05-19T08:18:49.327Z,90.00
2018-05-19T08:19:49.105Z,90.00
2018-05-19T08:20:49.130Z,95.63
2018-05-19T08:21:49.164Z,95.63
2018-05-19T08:22:49.223Z,95.63
2018-05-19T08:23:49.245Z,95.63
2018-05-19T08:24:49.260Z,95.63
2018-05-19T08:25:49.537Z,95.63
2018-05-19T08:26:49.318Z,95.63
2018-05-19T08:27:49.349Z,101.25
2018-05-19T08:28:49.435Z,101.25
2018-05-19T08:29:49.467Z,106.88
2018-05-19T08:30:49.450Z,106.88
2018-05-19T08:31:49.479Z,112.50
2018-05-19T08:32:49.759Z,123.75
2018-05-19T08:33:49.542Z,129.38
2018-05-19T08:34:49.578Z,129.38
2018-05-19T08:35:49.604Z,129.38
2018-05-19T08:36:49.639Z,129.38
2018-05-19T08:37:49.666Z,129.38
2018-05-19T08:38:49.705Z,129.38
2018-05-19T08:39:49.984Z,135.00
2018-05-19T08:40:49.773Z,140.63
2018-05-19T08:41:49.796Z,146.25
2018-05-19T08:42:49.836Z,146.25
2018-05-19T08:43:49.864Z,146.25
2018-05-19T08:44:49.892Z,146.25
2018-05-19T08:45:49.935Z,151.88
2018-05-19T08:46:50.256Z,151.88
2018-05-19T08:47:49.990Z,151.88
2018-05-19T08:48:50.014Z,151.88
2018-05-19T08:49:50.066Z,146.25
2018-05-19T08:50:50.082Z,140.63
2018-05-19T08:51:50.118Z,140.63
2018-05-19T08:52:50.148Z,140.63
2018-05-19T08:53:50.544Z,140.63
2018-05-19T08:54:50.217Z,135.00
2018-05-19T08:55:50.248Z,135.00
2018-05-19T08:56:50.270Z,129.38
2018-05-19T08:57:50.302Z,129.38
2018-05-19T08:58:50.339Z,129.38
2018-05-19T08:59:50.372Z,129.38
2018-05-19T09:00:50.706Z,123.75
2018-05-19T09:01:50.487Z,123.75
2018-05-19T09:02:50.507Z,118.13
2018-05-19T09:03:50.501Z,118.13
2018-05-19T09:04:50.528Z,112.50
2018-05-19T09:05:50.561Z,112.50
2018-05-19T09:06:50.594Z,112.50
2018-05-19T09:07:50.924Z,112.50
2018-05-19T09:08:50.670Z,106.88
2018-05-19T09:09:50.689Z,106.88
2018-05-19T09:10:50.735Z,112.50
2018-05-19T09:11:50.754Z,112.50
2018-05-19T09:12:50.868Z,112.50
2018-05-19T09:13:50.818Z,112.50
2018-05-19T09:14:51.099Z,112.50
2018-05-19T09:15:50.980Z,118.13
2018-05-19T09:16:50.909Z,118.13
2018-05-19T09:17:50.946Z,118.13
2018-05-19T09:18:50.976Z,118.13
2018-05-19T09:19:51.013Z,123.75
2018-05-19T09:20:51.041Z,123.75
2018-05-19T09:21:51.329Z,123.75
2018-05-19T09:22:51.108Z,123.75
2018-05-19T09:23:51.136Z,123.75
2018-05-19T09:24:51.169Z,123.75
2018-05-19T09:25:51.201Z,123.75
2018-05-19T09:26:51.234Z,129.38
2018-05-19T09:27:51.274Z,135.00
2018-05-19T09:28:51.596Z,135.00
2018-05-19T09:29:51.424Z,135.00
2018-05-19T09:30:51.359Z,135.00
2018-05-19T09:31:51.429Z,140.63
2018-05-19T09:32:51.430Z,140.63
2018-05-19T09:33:51.462Z,140.63
2018-05-19T09:34:51.739Z,140.63
2018-05-19T09:35:51.526Z,135.00
2018-05-19T09:36:51.553Z,129.38
2018-05-19T09:37:51.589Z,129.38
2018-05-19T09:38:51.620Z,118.13
2018-05-19T09:39:51.654Z,112.50
2018-05-19T09:40:51.936Z,112.50
2018-05-19T09:41:51.716Z,112.50
2018-05-19T09:42:51.747Z,112.50
2018-05-19T09:43:51.782Z,106.88
2018-05-19T09:44:51.807Z,112.50
2018-05-19T09:45:51.857Z,112.50
2018-05-19T09:46:52.124Z,106.88
2018-05-19T09:47:51.913Z,112.50
2018-05-19T09:48:51.939Z,112.50
2018-05-19T09:49:51.990Z,112.50
2018-05-19T09:50:52.000Z,112.50
2018-05-19T09:51:52.043Z,112.50
2018-05-19T09:52:52.315Z,112.50
2018-05-19T09:53:52.102Z,112.50
2018-05-19T09:54:52.131Z,112.50
2018-05-19T09:55:52.219Z,118.13
2018-05-19T09:56:52.238Z,118.13
2018-05-19T09:57:52.231Z,123.75
2018-05-19T09:58:52.513Z,129.38
2018-05-19T09:59:52.297Z,129.38
2018-05-19T10:00:52.480Z,135.00
2018-05-19T10:01:52.359Z,135.00
2018-05-19T10:02:52.386Z,140.63
2018-05-19T10:03:52.431Z,146.25
2018-05-19T10:04:52.804Z,151.88
2018-05-19T10:05:52.495Z,151.88
2018-05-19T10:06:52.529Z,151.88
2018-05-19T10:07:52.551Z,157.50
2018-05-19T10:08:52.582Z,168.75
2018-05-19T10:09:52.620Z,174.38
2018-05-19T10:10:52.960Z,174.38
2018-05-19T10:11:52.687Z,185.63
2018-05-19T10:12:52.711Z,185.63
2018-05-19T10:13:52.746Z,180.00
2018-05-19T10:14:52.828Z,174.38
2018-05-19T10:15:52.832Z,174.38
2018-05-19T10:16:53.091Z,174.38
2018-05-19T10:17:52.876Z,174.38
2018-05-19T10:18:52.913Z,174.38
2018-05-19T10:19:52.939Z,168.75
2018-05-19T10:20:52.976Z,168.75
2018-05-19T10:21:53.004Z,168.75
2018-05-19T10:22:53.350Z,174.38
2018-05-19T10:23:53.072Z,168.75
2018-05-19T10:24:53.100Z,168.75
2018-05-19T10:25:53.150Z,174.38
2018-05-19T10:26:53.167Z,174.38
2018-05-19T10:27:53.201Z,174.38
2018-05-19T10:28:53.488Z,180.00
2018-05-19T10:29:53.266Z,180.00
2018-05-19T10:30:53.300Z,185.63
2018-05-19T10:31:53.333Z,185.63
2018-05-19T10:32:53.362Z,185.63
2018-05-19T10:33:53.406Z,185.63
2018-05-19T10:34:53.680Z,185.63
2018-05-19T10:35:53.466Z,191.25
2018-05-19T10:36:53.504Z,191.25
2018-05-19T10:37:53.539Z,196.88
2018-05-19T10:38:53.566Z,196.88
2018-05-19T10:39:53.596Z,196.88
2018-05-19T10:40:53.926Z,196.88
2018-05-19T10:41:53.666Z,202.50
2018-05-19T10:42:53.700Z,208.13
2018-05-19T10:43:53.725Z,208.13
2018-05-19T10:44:53.760Z,213.75
2018-05-19T10:45:53.802Z,213.75
2018-05-19T10:46:54.075Z,219.38
2018-05-19T10:47:53.861Z,219.38
2018-05-19T10:48:53.891Z,219.38
2018-05-19T10:49:53.929Z,219.38
2018-05-19T10:50:53.978Z,213.75
2018-05-19T10:51:53.989Z,213.75
2018-05-19T10:52:54.025Z,208.13
2018-05-19T10:53:54.369Z,196.88
2018-05-19T10:54:54.104Z,191.25
2018-05-19T10:55:54.122Z,185.63
2018-05-19T10:56:54.240Z,180.00
2018-05-19T10:57:54.191Z,174.38
2018-05-19T10:58:54.229Z,174.38
2018-05-19T10:59:54.256Z,174.38
2018-05-19T11:00:54.591Z,174.38
2018-05-19T11:01:54.333Z,180.00
2018-05-19T11:02:54.361Z,180.00
2018-05-19T11:03:54.391Z,185.63
2018-05-19T11:04:54.429Z,191.25
2018-05-19T11:05:54.468Z,191.25
2018-05-19T11:06:54.490Z,191.25
2018-05-19T11:07:54.828Z,191.25
2018-05-19T11:08:54.584Z,191.25
2018-05-19T11:09:54.598Z,191.25
2018-05-19T11:10:54.624Z,191.25
2018-05-19T11:11:54.656Z,196.88
2018-05-19T11:12:54.698Z,196.88
2018-05-19T11:13:54.728Z,196.88
2018-05-19T11:14:55.057Z,196.88
2018-05-19T11:15:54.795Z,196.88
2018-05-19T11:16:54.823Z,202.50
2018-05-19T11:17:54.878Z,202.50
2018-05-19T11:18:54.946Z,202.50
2018-05-19T11:19:54.933Z,202.50
2018-05-19T11:20:54.974Z,202.50
2018-05-19T11:21:55.310Z,208.13
2018-05-19T11:22:55.084Z,208.13
2018-05-19T11:23:55.065Z,213.75
2018-05-19T11:24:55.090Z,213.75
2018-05-19T11:25:55.140Z,219.38
2018-05-19T11:26:55.160Z,225.00
2018-05-19T11:27:55.403Z,236.25
2018-05-19T11:28:55.476Z,236.25
2018-05-19T11:29:55.262Z,225.00
2018-05-19T11:30:55.399Z,213.75
2018-05-19T11:31:55.382Z,208.13
2018-05-19T11:32:55.363Z,202.50
2018-05-19T11:33:55.447Z,202.50
2018-05-19T11:34:55.430Z,202.50
2018-05-19T11:35:55.774Z,202.50
2018-05-19T11:36:55.503Z,202.50
2018-05-19T11:37:55.560Z,208.13
2018-05-19T11:38:55.576Z,213.75
2018-05-19T11:39:55.631Z,213.75
2018-05-19T11:40:55.651Z,213.75
2018-05-19T11:41:55.670Z,219.38
2018-05-19T11:42:56.066Z,219.38
2018-05-19T11:43:55.750Z,219.38
2018-05-19T11:44:55.780Z,225.00
2018-05-19T11:45:55.959Z,225.00
2018-05-19T11:46:56.029Z,225.00
2018-05-19T11:47:56.111Z,219.38
2018-05-19T11:48:55.980Z,213.75
2018-05-19T11:49:56.450Z,213.75
2018-05-19T11:50:55.972Z,208.13
2018-05-19T11:51:56.015Z,213.75
2018-05-19T11:52:56.033Z,219.38
2018-05-19T11:53:56.116Z,225.00
2018-05-19T11:54:56.129Z,230.63
2018-05-19T11:55:56.144Z,230.63
2018-05-19T11:56:56.464Z,236.25
2018-05-19T11:57:56.328Z,236.25
2018-05-19T11:58:56.267Z,247.50
2018-05-19T11:59:56.271Z,247.50
2018-05-19T12:00:56.363Z,253.13
2018-05-19T12:01:56.342Z,258.75
2018-05-19T12:02:56.379Z,264.38
2018-05-19T12:03:56.765Z,275.63
2018-05-19T12:04:56.488Z,286.88
2018-05-19T12:05:56.525Z,298.13
2018-05-19T12:06:56.573Z,298.13
2018-05-19T12:07:56.558Z,298.13
2018-05-19T12:08:56.608Z,303.75
2018-05-19T12:09:56.612Z,309.38
2018-05-19T12:10:56.973Z,309.38
2018-05-19T12:11:56.772Z,309.38
2018-05-19T12:12:56.792Z,315.00
2018-05-19T12:13:56.758Z,309.38
2018-05-19T12:14:56.812Z,298.13
2018-05-19T12:15:56.868Z,286.88
2018-05-19T12:16:57.191Z,275.63
2018-05-19T12:17:56.926Z,258.75
2018-05-19T12:18:56.916Z,264.38
2018-05-19T12:19:56.949Z,264.38
2018-05-19T12:20:57.001Z,264.38
2018-05-19T12:21:57.126Z,264.38
2018-05-19T12:22:57.350Z,253.13
2018-05-19T12:23:57.101Z,247.50
2018-05-19T12:24:57.121Z,241.88
2018-05-19T12:25:57.154Z,247.50
2018-05-19T12:26:57.277Z,253.13
2018-05-19T12:27:57.244Z,253.13
2018-05-19T12:28:57.664Z,258.75
2018-05-19T12:29:57.299Z,264.38
2018-05-19T12:30:57.352Z,270.00
2018-05-19T12:31:57.380Z,270.00
2018-05-19T12:32:57.399Z,270.00
2018-05-19T12:33:57.443Z,264.38
2018-05-19T12:34:57.765Z,264.38
2018-05-19T12:35:57.519Z,258.75
2018-05-19T12:36:57.529Z,258.75
2018-05-19T12:37:57.563Z,258.75
2018-05-19T12:38:57.665Z,258.75
2018-05-19T12:39:57.635Z,258.75
2018-05-19T12:40:57.991Z,258.75
2018-05-19T12:41:57.696Z,258.75
2018-05-19T12:42:57.743Z,258.75
2018-05-19T12:43:57.780Z,264.38
2018-05-19T12:44:57.800Z,264.38
2018-05-19T12:45:57.966Z,264.38
2018-05-19T12:46:58.214Z,270.00
2018-05-19T12:47:57.948Z,270.00
2018-05-19T12:48:57.969Z,275.63
2018-05-19T12:49:57.974Z,281.25
2018-05-19T12:50:58.008Z,286.88